sensor_id;sensor_type;location;lat;lon;timestamp;P1;durP1;ratioP1;P2;durP2;ratioP2
10957;SDS011;5531;42.570;23.676;2022-07-23T00:00:07;5.05;;;4.05;;
10957;SDS011;5531;42.570;23.676;2022-07-23T00:02:37;6.10;;;4.32;;
10957;SDS011;5531;42.570;23.676;2022-07-23T00:05:06;6.28;;;4.07;;
10957;SDS011;5531;42.570;23.676;2022-07-23T00:07:36;6.97;;;4.50;;
10957;SDS011;5531;42.570;23.676;2022-07-23T00:10:08;4.82;;;4.30;;
10957;SDS011;5531;42.570;23.676;2022-07-23T00:12:38;5.68;;;4.68;;
10957;SDS011;5531;42.570;23.676;2022-07-23T00:15:08;6.60;;;4.10;;
10957;SDS011;5531;42.570;23.676;2022-07-23T00:17:37;4.57;;;4.18;;
10957;SDS011;5531;42.570;23.676;2022-07-23T00:20:07;7.45;;;4.35;;
10957;SDS011;5531;42.570;23.676;2022-07-23T00:22:36;6.60;;;4.18;;
10957;SDS011;5531;42.570;23.676;2022-07-23T00:25:16;6.85;;;4.45;;
10957;SDS011;5531;42.570;23.676;2022-07-23T00:27:45;7.38;;;4.30;;
10957;SDS011;5531;42.570;23.676;2022-07-23T00:30:14;6.22;;;4.38;;
10957;SDS011;5531;42.570;23.676;2022-07-23T00:32:47;5.40;;;4.40;;
10957;SDS011;5531;42.570;23.676;2022-07-23T00:35:18;7.35;;;4.68;;
10957;SDS011;5531;42.570;23.676;2022-07-23T00:37:49;5.45;;;4.15;;
10957;SDS011;5531;42.570;23.676;2022-07-23T00:40:21;6.30;;;4.38;;
10957;SDS011;5531;42.570;23.676;2022-07-23T00:42:50;5.78;;;4.53;;
10957;SDS011;5531;42.570;23.676;2022-07-23T00:45:20;7.30;;;4.20;;
10957;SDS011;5531;42.570;23.676;2022-07-23T00:47:49;7.00;;;5.00;;
10957;SDS011;5531;42.570;23.676;2022-07-23T00:50:18;9.10;;;4.63;;
10957;SDS011;5531;42.570;23.676;2022-07-23T00:52:47;5.43;;;4.57;;
10957;SDS011;5531;42.570;23.676;2022-07-23T00:55:16;4.97;;;4.47;;
10957;SDS011;5531;42.570;23.676;2022-07-23T00:57:48;5.10;;;4.60;;
10957;SDS011;5531;42.570;23.676;2022-07-23T01:00:18;7.97;;;4.40;;
10957;SDS011;5531;42.570;23.676;2022-07-23T01:02:47;5.65;;;4.65;;
10957;SDS011;5531;42.570;23.676;2022-07-23T01:05:16;9.40;;;4.25;;
10957;SDS011;5531;42.570;23.676;2022-07-23T01:07:47;6.10;;;4.30;;
10957;SDS011;5531;42.570;23.676;2022-07-23T01:10:16;6.28;;;4.63;;
10957;SDS011;5531;42.570;23.676;2022-07-23T01:13:04;5.30;;;4.28;;
10957;SDS011;5531;42.570;23.676;2022-07-23T01:15:35;5.10;;;4.60;;
10957;SDS011;5531;42.570;23.676;2022-07-23T01:18:06;5.43;;;4.80;;
10957;SDS011;5531;42.570;23.676;2022-07-23T01:20:37;5.13;;;4.22;;
10957;SDS011;5531;42.570;23.676;2022-07-23T01:23:09;7.85;;;4.53;;
10957;SDS011;5531;42.570;23.676;2022-07-23T01:25:46;5.18;;;4.30;;
10957;SDS011;5531;42.570;23.676;2022-07-23T01:28:16;7.30;;;4.40;;
10957;SDS011;5531;42.570;23.676;2022-07-23T01:30:45;7.30;;;4.35;;
10957;SDS011;5531;42.570;23.676;2022-07-23T01:33:15;6.15;;;4.20;;
10957;SDS011;5531;42.570;23.676;2022-07-23T01:35:44;5.35;;;4.30;;
10957;SDS011;5531;42.570;23.676;2022-07-23T01:38:16;6.75;;;4.43;;
10957;SDS011;5531;42.570;23.676;2022-07-23T01:40:45;8.15;;;4.28;;
10957;SDS011;5531;42.570;23.676;2022-07-23T01:43:14;6.00;;;4.60;;
10957;SDS011;5531;42.570;23.676;2022-07-23T01:45:43;5.03;;;4.45;;
10957;SDS011;5531;42.570;23.676;2022-07-23T01:48:12;4.88;;;4.03;;
10957;SDS011;5531;42.570;23.676;2022-07-23T01:50:41;7.38;;;4.53;;
10957;SDS011;5531;42.570;23.676;2022-07-23T01:53:10;6.88;;;4.68;;
10957;SDS011;5531;42.570;23.676;2022-07-23T01:55:42;6.93;;;4.40;;
10957;SDS011;5531;42.570;23.676;2022-07-23T01:58:12;4.93;;;4.43;;
10957;SDS011;5531;42.570;23.676;2022-07-23T02:00:41;6.22;;;4.68;;
10957;SDS011;5531;42.570;23.676;2022-07-23T02:03:10;4.93;;;4.18;;
10957;SDS011;5531;42.570;23.676;2022-07-23T02:05:39;7.13;;;4.55;;
10957;SDS011;5531;42.570;23.676;2022-07-23T02:08:08;6.90;;;4.65;;
10957;SDS011;5531;42.570;23.676;2022-07-23T02:10:37;6.22;;;4.45;;
10957;SDS011;5531;42.570;23.676;2022-07-23T02:13:08;4.88;;;4.10;;
10957;SDS011;5531;42.570;23.676;2022-07-23T02:15:38;8.43;;;4.53;;
10957;SDS011;5531;42.570;23.676;2022-07-23T02:18:07;5.72;;;4.20;;
10957;SDS011;5531;42.570;23.676;2022-07-23T02:20:36;6.05;;;4.55;;
10957;SDS011;5531;42.570;23.676;2022-07-23T02:23:05;5.45;;;4.10;;
10957;SDS011;5531;42.570;23.676;2022-07-23T02:25:34;5.35;;;4.15;;
10957;SDS011;5531;42.570;23.676;2022-07-23T02:28:04;8.40;;;4.25;;
10957;SDS011;5531;42.570;23.676;2022-07-23T02:30:36;5.72;;;4.40;;
10957;SDS011;5531;42.570;23.676;2022-07-23T02:33:05;6.63;;;4.25;;
10957;SDS011;5531;42.570;23.676;2022-07-23T02:35:34;4.82;;;4.28;;
10957;SDS011;5531;42.570;23.676;2022-07-23T02:38:03;5.80;;;4.30;;
10957;SDS011;5531;42.570;23.676;2022-07-23T02:40:32;6.43;;;4.28;;
10957;SDS011;5531;42.570;23.676;2022-07-23T02:43:01;5.28;;;4.38;;
10957;SDS011;5531;42.570;23.676;2022-07-23T02:45:30;9.07;;;4.90;;
10957;SDS011;5531;42.570;23.676;2022-07-23T02:48:02;5.30;;;4.40;;
10957;SDS011;5531;42.570;23.676;2022-07-23T02:50:31;5.00;;;4.15;;
10957;SDS011;5531;42.570;23.676;2022-07-23T02:53:00;5.13;;;4.13;;
10957;SDS011;5531;42.570;23.676;2022-07-23T02:55:29;5.38;;;4.35;;
10957;SDS011;5531;42.570;23.676;2022-07-23T02:57:58;6.72;;;4.20;;
10957;SDS011;5531;42.570;23.676;2022-07-23T03:00:28;5.30;;;4.80;;
10957;SDS011;5531;42.570;23.676;2022-07-23T03:02:57;5.78;;;4.40;;
10957;SDS011;5531;42.570;23.676;2022-07-23T03:05:28;6.22;;;4.53;;
10957;SDS011;5531;42.570;23.676;2022-07-23T03:07:57;7.45;;;4.40;;
10957;SDS011;5531;42.570;23.676;2022-07-23T03:10:26;8.38;;;4.35;;
10957;SDS011;5531;42.570;23.676;2022-07-23T03:12:55;7.07;;;4.30;;
10957;SDS011;5531;42.570;23.676;2022-07-23T03:15:24;6.03;;;4.57;;
10957;SDS011;5531;42.570;23.676;2022-07-23T03:17:53;5.07;;;4.38;;
10957;SDS011;5531;42.570;23.676;2022-07-23T03:20:22;6.85;;;4.40;;
10957;SDS011;5531;42.570;23.676;2022-07-23T03:22:54;6.30;;;4.72;;
10957;SDS011;5531;42.570;23.676;2022-07-23T03:25:23;7.07;;;3.80;;
10957;SDS011;5531;42.570;23.676;2022-07-23T03:27:52;5.97;;;4.43;;
10957;SDS011;5531;42.570;23.676;2022-07-23T03:30:21;6.18;;;4.40;;
10957;SDS011;5531;42.570;23.676;2022-07-23T03:32:50;9.15;;;4.82;;
10957;SDS011;5531;42.570;23.676;2022-07-23T03:35:19;6.47;;;4.47;;
10957;SDS011;5531;42.570;23.676;2022-07-23T03:37:48;5.90;;;4.63;;
10957;SDS011;5531;42.570;23.676;2022-07-23T03:40:20;6.13;;;4.40;;
10957;SDS011;5531;42.570;23.676;2022-07-23T03:42:49;5.75;;;4.20;;
10957;SDS011;5531;42.570;23.676;2022-07-23T03:45:18;5.55;;;4.43;;
10957;SDS011;5531;42.570;23.676;2022-07-23T03:47:47;5.40;;;4.38;;
10957;SDS011;5531;42.570;23.676;2022-07-23T03:50:16;5.43;;;4.50;;
10957;SDS011;5531;42.570;23.676;2022-07-23T03:52:45;5.88;;;4.60;;
10957;SDS011;5531;42.570;23.676;2022-07-23T03:55:14;6.53;;;4.45;;
10957;SDS011;5531;42.570;23.676;2022-07-23T03:57:46;5.75;;;4.50;;
10957;SDS011;5531;42.570;23.676;2022-07-23T04:00:15;6.53;;;4.90;;
10957;SDS011;5531;42.570;23.676;2022-07-23T04:02:44;7.80;;;4.70;;
10957;SDS011;5531;42.570;23.676;2022-07-23T04:05:13;7.25;;;4.65;;
10957;SDS011;5531;42.570;23.676;2022-07-23T04:07:43;7.30;;;4.20;;
10957;SDS011;5531;42.570;23.676;2022-07-23T04:10:12;5.45;;;4.05;;
10957;SDS011;5531;42.570;23.676;2022-07-23T04:12:41;5.50;;;4.55;;
10957;SDS011;5531;42.570;23.676;2022-07-23T04:15:13;7.13;;;4.50;;
10957;SDS011;5531;42.570;23.676;2022-07-23T04:17:42;8.60;;;5.10;;
10957;SDS011;5531;42.570;23.676;2022-07-23T04:20:12;6.70;;;4.55;;
10957;SDS011;5531;42.570;23.676;2022-07-23T04:22:41;6.95;;;4.60;;
10957;SDS011;5531;42.570;23.676;2022-07-23T04:25:10;6.10;;;4.70;;
10957;SDS011;5531;42.570;23.676;2022-07-23T04:27:42;8.20;;;4.88;;
10957;SDS011;5531;42.570;23.676;2022-07-23T04:30:13;5.82;;;4.30;;
10957;SDS011;5531;42.570;23.676;2022-07-23T04:32:42;8.00;;;4.80;;
10957;SDS011;5531;42.570;23.676;2022-07-23T04:35:12;5.18;;;4.20;;
10957;SDS011;5531;42.570;23.676;2022-07-23T04:37:41;8.32;;;4.70;;
10957;SDS011;5531;42.570;23.676;2022-07-23T04:40:10;5.97;;;4.68;;
10957;SDS011;5531;42.570;23.676;2022-07-23T04:42:40;7.88;;;4.22;;
10957;SDS011;5531;42.570;23.676;2022-07-23T04:45:09;7.07;;;4.32;;
10957;SDS011;5531;42.570;23.676;2022-07-23T04:47:41;6.05;;;4.20;;
10957;SDS011;5531;42.570;23.676;2022-07-23T04:50:10;8.02;;;4.70;;
10957;SDS011;5531;42.570;23.676;2022-07-23T04:52:42;7.68;;;4.25;;
10957;SDS011;5531;42.570;23.676;2022-07-23T04:55:11;5.78;;;4.25;;
10957;SDS011;5531;42.570;23.676;2022-07-23T04:57:41;10.30;;;4.70;;
10957;SDS011;5531;42.570;23.676;2022-07-23T05:00:13;6.03;;;4.70;;
10957;SDS011;5531;42.570;23.676;2022-07-23T05:02:42;6.45;;;4.35;;
10957;SDS011;5531;42.570;23.676;2022-07-23T05:05:11;5.88;;;4.22;;
10957;SDS011;5531;42.570;23.676;2022-07-23T05:07:40;8.23;;;4.43;;
10957;SDS011;5531;42.570;23.676;2022-07-23T05:10:09;9.05;;;4.75;;
10957;SDS011;5531;42.570;23.676;2022-07-23T05:12:39;7.38;;;4.35;;
10957;SDS011;5531;42.570;23.676;2022-07-23T05:15:08;5.75;;;4.47;;
10957;SDS011;5531;42.570;23.676;2022-07-23T05:17:40;4.85;;;4.28;;
10957;SDS011;5531;42.570;23.676;2022-07-23T05:20:09;6.22;;;4.22;;
10957;SDS011;5531;42.570;23.676;2022-07-23T05:22:39;6.20;;;4.22;;
10957;SDS011;5531;42.570;23.676;2022-07-23T05:25:08;6.03;;;4.43;;
10957;SDS011;5531;42.570;23.676;2022-07-23T05:27:37;7.60;;;4.90;;
10957;SDS011;5531;42.570;23.676;2022-07-23T05:30:07;7.00;;;4.50;;
10957;SDS011;5531;42.570;23.676;2022-07-23T05:32:36;7.28;;;4.50;;
10957;SDS011;5531;42.570;23.676;2022-07-23T05:35:08;6.65;;;4.50;;
10957;SDS011;5531;42.570;23.676;2022-07-23T05:37:37;6.55;;;4.50;;
10957;SDS011;5531;42.570;23.676;2022-07-23T05:40:07;7.07;;;4.63;;
10957;SDS011;5531;42.570;23.676;2022-07-23T05:42:38;7.53;;;4.35;;
10957;SDS011;5531;42.570;23.676;2022-07-23T05:45:08;8.90;;;4.75;;
10957;SDS011;5531;42.570;23.676;2022-07-23T05:47:39;8.05;;;4.88;;
10957;SDS011;5531;42.570;23.676;2022-07-23T05:50:12;6.85;;;4.68;;
10957;SDS011;5531;42.570;23.676;2022-07-23T05:52:41;6.57;;;5.07;;
10957;SDS011;5531;42.570;23.676;2022-07-23T05:55:12;10.60;;;5.22;;
10957;SDS011;5531;42.570;23.676;2022-07-23T05:57:42;8.63;;;5.30;;
10957;SDS011;5531;42.570;23.676;2022-07-23T06:00:11;8.43;;;5.43;;
10957;SDS011;5531;42.570;23.676;2022-07-23T06:02:41;6.10;;;5.35;;
10957;SDS011;5531;42.570;23.676;2022-07-23T06:05:12;6.78;;;5.07;;
10957;SDS011;5531;42.570;23.676;2022-07-23T06:07:41;6.35;;;5.57;;
10957;SDS011;5531;42.570;23.676;2022-07-23T06:10:10;7.55;;;5.07;;
10957;SDS011;5531;42.570;23.676;2022-07-23T06:12:39;7.18;;;5.57;;
10957;SDS011;5531;42.570;23.676;2022-07-23T06:15:09;8.10;;;5.18;;
10957;SDS011;5531;42.570;23.676;2022-07-23T06:17:39;8.02;;;5.38;;
10957;SDS011;5531;42.570;23.676;2022-07-23T06:20:09;6.95;;;5.53;;
10957;SDS011;5531;42.570;23.676;2022-07-23T06:22:41;10.50;;;6.00;;
10957;SDS011;5531;42.570;23.676;2022-07-23T06:25:10;7.03;;;5.28;;
10957;SDS011;5531;42.570;23.676;2022-07-23T06:27:39;10.45;;;5.40;;
10957;SDS011;5531;42.570;23.676;2022-07-23T06:30:09;6.68;;;5.18;;
10957;SDS011;5531;42.570;23.676;2022-07-23T06:32:41;8.20;;;5.07;;
10957;SDS011;5531;42.570;23.676;2022-07-23T06:35:12;6.45;;;5.28;;
10957;SDS011;5531;42.570;23.676;2022-07-23T06:37:42;8.38;;;5.35;;
10957;SDS011;5531;42.570;23.676;2022-07-23T06:40:11;6.15;;;5.10;;
10957;SDS011;5531;42.570;23.676;2022-07-23T06:42:41;7.25;;;5.60;;
10957;SDS011;5531;42.570;23.676;2022-07-23T06:45:10;8.00;;;5.00;;
10957;SDS011;5531;42.570;23.676;2022-07-23T06:47:39;8.80;;;5.10;;
10957;SDS011;5531;42.570;23.676;2022-07-23T06:50:08;7.35;;;5.38;;
10957;SDS011;5531;42.570;23.676;2022-07-23T06:52:41;7.22;;;4.88;;
10957;SDS011;5531;42.570;23.676;2022-07-23T06:55:10;8.95;;;5.38;;
10957;SDS011;5531;42.570;23.676;2022-07-23T06:57:39;8.60;;;5.30;;
10957;SDS011;5531;42.570;23.676;2022-07-23T07:00:09;7.93;;;4.85;;
10957;SDS011;5531;42.570;23.676;2022-07-23T07:02:39;8.43;;;5.43;;
10957;SDS011;5531;42.570;23.676;2022-07-23T07:05:08;6.47;;;5.30;;
10957;SDS011;5531;42.570;23.676;2022-07-23T07:07:37;5.40;;;4.85;;
10957;SDS011;5531;42.570;23.676;2022-07-23T07:10:09;6.93;;;5.00;;
10957;SDS011;5531;42.570;23.676;2022-07-23T07:12:38;8.43;;;5.15;;
10957;SDS011;5531;42.570;23.676;2022-07-23T07:15:08;6.25;;;5.30;;
10957;SDS011;5531;42.570;23.676;2022-07-23T07:17:37;6.53;;;5.63;;
10957;SDS011;5531;42.570;23.676;2022-07-23T07:20:08;6.55;;;5.28;;
10957;SDS011;5531;42.570;23.676;2022-07-23T07:22:38;5.55;;;4.82;;
10957;SDS011;5531;42.570;23.676;2022-07-23T07:25:10;9.00;;;5.03;;
10957;SDS011;5531;42.570;23.676;2022-07-23T07:27:39;9.35;;;4.80;;
10957;SDS011;5531;42.570;23.676;2022-07-23T07:30:10;7.18;;;5.03;;
10957;SDS011;5531;42.570;23.676;2022-07-23T07:32:41;6.45;;;5.20;;
10957;SDS011;5531;42.570;23.676;2022-07-23T07:35:10;8.45;;;5.00;;
10957;SDS011;5531;42.570;23.676;2022-07-23T07:37:39;7.68;;;5.07;;
10957;SDS011;5531;42.570;23.676;2022-07-23T07:40:11;7.25;;;5.00;;
10957;SDS011;5531;42.570;23.676;2022-07-23T07:42:44;6.05;;;5.13;;
10957;SDS011;5531;42.570;23.676;2022-07-23T07:45:13;6.93;;;5.03;;
10957;SDS011;5531;42.570;23.676;2022-07-23T07:47:43;6.70;;;5.30;;
10957;SDS011;5531;42.570;23.676;2022-07-23T07:50:12;7.65;;;4.93;;
10957;SDS011;5531;42.570;23.676;2022-07-23T07:52:41;10.45;;;4.80;;
10957;SDS011;5531;42.570;23.676;2022-07-23T07:55:13;9.55;;;5.20;;
10957;SDS011;5531;42.570;23.676;2022-07-23T07:57:42;7.30;;;4.68;;
10957;SDS011;5531;42.570;23.676;2022-07-23T08:00:11;5.25;;;4.65;;
10957;SDS011;5531;42.570;23.676;2022-07-23T08:02:42;6.82;;;4.70;;
10957;SDS011;5531;42.570;23.676;2022-07-23T08:05:13;5.30;;;4.80;;
10957;SDS011;5531;42.570;23.676;2022-07-23T08:07:42;6.63;;;4.57;;
10957;SDS011;5531;42.570;23.676;2022-07-23T08:10:14;7.15;;;4.95;;
10957;SDS011;5531;42.570;23.676;2022-07-23T08:12:45;6.30;;;4.85;;
10957;SDS011;5531;42.570;23.676;2022-07-23T08:15:16;6.90;;;4.85;;
10957;SDS011;5531;42.570;23.676;2022-07-23T08:17:47;5.28;;;4.75;;
10957;SDS011;5531;42.570;23.676;2022-07-23T08:20:18;7.63;;;4.82;;
10957;SDS011;5531;42.570;23.676;2022-07-23T08:22:48;7.15;;;4.85;;
10957;SDS011;5531;42.570;23.676;2022-07-23T08:25:22;6.75;;;4.72;;
10957;SDS011;5531;42.570;23.676;2022-07-23T08:27:53;6.55;;;4.40;;
10957;SDS011;5531;42.570;23.676;2022-07-23T08:30:22;8.27;;;4.65;;
10957;SDS011;5531;42.570;23.676;2022-07-23T08:32:52;5.53;;;4.38;;
10957;SDS011;5531;42.570;23.676;2022-07-23T08:35:27;9.93;;;5.00;;
10957;SDS011;5531;42.570;23.676;2022-07-23T08:37:58;5.15;;;4.63;;
10957;SDS011;5531;42.570;23.676;2022-07-23T08:40:31;7.45;;;4.65;;
10957;SDS011;5531;42.570;23.676;2022-07-23T08:43:03;5.75;;;4.72;;
10957;SDS011;5531;42.570;23.676;2022-07-23T08:45:35;8.20;;;4.72;;
10957;SDS011;5531;42.570;23.676;2022-07-23T08:48:12;9.65;;;4.45;;
10957;SDS011;5531;42.570;23.676;2022-07-23T08:50:42;12.57;;;4.63;;
10957;SDS011;5531;42.570;23.676;2022-07-23T08:53:12;6.88;;;4.70;;
10957;SDS011;5531;42.570;23.676;2022-07-23T08:55:45;7.38;;;4.90;;
10957;SDS011;5531;42.570;23.676;2022-07-23T08:58:15;8.90;;;4.53;;
10957;SDS011;5531;42.570;23.676;2022-07-23T09:00:44;7.57;;;4.88;;
10957;SDS011;5531;42.570;23.676;2022-07-23T09:03:15;7.78;;;4.90;;
10957;SDS011;5531;42.570;23.676;2022-07-23T09:05:45;6.20;;;4.75;;
10957;SDS011;5531;42.570;23.676;2022-07-23T09:08:16;7.72;;;4.65;;
10957;SDS011;5531;42.570;23.676;2022-07-23T09:10:54;6.20;;;4.82;;
10957;SDS011;5531;42.570;23.676;2022-07-23T09:13:25;6.93;;;4.57;;
10957;SDS011;5531;42.570;23.676;2022-07-23T09:15:57;6.93;;;4.60;;
10957;SDS011;5531;42.570;23.676;2022-07-23T09:18:33;5.40;;;4.55;;
10957;SDS011;5531;42.570;23.676;2022-07-23T09:23:54;6.05;;;4.70;;
10957;SDS011;5531;42.570;23.676;2022-07-23T09:26:30;6.57;;;4.65;;
10957;SDS011;5531;42.570;23.676;2022-07-23T09:29:03;7.00;;;4.32;;
10957;SDS011;5531;42.570;23.676;2022-07-23T09:31:47;9.05;;;4.50;;
10957;SDS011;5531;42.570;23.676;2022-07-23T09:34:19;6.57;;;4.30;;
10957;SDS011;5531;42.570;23.676;2022-07-23T09:36:50;6.63;;;4.43;;
10957;SDS011;5531;42.570;23.676;2022-07-23T09:39:25;6.65;;;4.75;;
10957;SDS011;5531;42.570;23.676;2022-07-23T09:41:59;5.95;;;4.45;;
10957;SDS011;5531;42.570;23.676;2022-07-23T09:44:42;5.32;;;4.43;;
10957;SDS011;5531;42.570;23.676;2022-07-23T09:47:12;8.43;;;4.60;;
10957;SDS011;5531;42.570;23.676;2022-07-23T09:49:43;9.85;;;4.80;;
10957;SDS011;5531;42.570;23.676;2022-07-23T09:52:30;6.75;;;4.50;;
10957;SDS011;5531;42.570;23.676;2022-07-23T09:55:01;7.22;;;4.22;;
10957;SDS011;5531;42.570;23.676;2022-07-23T09:57:35;6.15;;;4.55;;
10957;SDS011;5531;42.570;23.676;2022-07-23T10:00:05;7.40;;;4.78;;
10957;SDS011;5531;42.570;23.676;2022-07-23T10:02:36;5.75;;;4.38;;
10957;SDS011;5531;42.570;23.676;2022-07-23T10:05:07;6.70;;;4.13;;
10957;SDS011;5531;42.570;23.676;2022-07-23T10:07:36;6.32;;;4.38;;
10957;SDS011;5531;42.570;23.676;2022-07-23T10:10:08;5.97;;;4.18;;
10957;SDS011;5531;42.570;23.676;2022-07-23T10:12:41;7.82;;;4.43;;
10957;SDS011;5531;42.570;23.676;2022-07-23T10:15:24;6.40;;;4.60;;
10957;SDS011;5531;42.570;23.676;2022-07-23T10:17:53;6.60;;;4.15;;
10957;SDS011;5531;42.570;23.676;2022-07-23T10:20:25;5.68;;;4.22;;
10957;SDS011;5531;42.570;23.676;2022-07-23T10:22:58;9.63;;;4.22;;
10957;SDS011;5531;42.570;23.676;2022-07-23T10:25:34;5.30;;;3.95;;
10957;SDS011;5531;42.570;23.676;2022-07-23T10:28:19;8.02;;;4.10;;
10957;SDS011;5531;42.570;23.676;2022-07-23T10:31:02;6.10;;;4.07;;
10957;SDS011;5531;42.570;23.676;2022-07-23T10:33:40;9.10;;;4.25;;
10957;SDS011;5531;42.570;23.676;2022-07-23T10:36:20;6.43;;;4.00;;
10957;SDS011;5531;42.570;23.676;2022-07-23T10:38:56;6.05;;;4.10;;
10957;SDS011;5531;42.570;23.676;2022-07-23T10:41:32;6.30;;;4.18;;
10957;SDS011;5531;42.570;23.676;2022-07-23T10:44:11;6.20;;;4.10;;
10957;SDS011;5531;42.570;23.676;2022-07-23T10:46:54;6.60;;;4.32;;
10957;SDS011;5531;42.570;23.676;2022-07-23T10:49:42;6.03;;;4.43;;
10957;SDS011;5531;42.570;23.676;2022-07-23T10:52:15;8.57;;;4.75;;
10957;SDS011;5531;42.570;23.676;2022-07-23T10:54:48;6.45;;;4.05;;
10957;SDS011;5531;42.570;23.676;2022-07-23T10:57:19;7.43;;;4.30;;
10957;SDS011;5531;42.570;23.676;2022-07-23T11:02:52;6.80;;;4.10;;
10957;SDS011;5531;42.570;23.676;2022-07-23T11:05:22;10.77;;;4.82;;
10957;SDS011;5531;42.570;23.676;2022-07-23T11:10:49;9.50;;;4.40;;
10957;SDS011;5531;42.570;23.676;2022-07-23T11:16:16;8.15;;;4.30;;
10957;SDS011;5531;42.570;23.676;2022-07-23T11:19:06;7.50;;;4.47;;
10957;SDS011;5531;42.570;23.676;2022-07-23T11:21:43;7.00;;;4.45;;
10957;SDS011;5531;42.570;23.676;2022-07-23T11:24:15;8.20;;;4.50;;
10957;SDS011;5531;42.570;23.676;2022-07-23T11:26:50;7.28;;;4.20;;
10957;SDS011;5531;42.570;23.676;2022-07-23T11:35:27;7.57;;;4.10;;
10957;SDS011;5531;42.570;23.676;2022-07-23T11:38:03;7.75;;;4.10;;
10957;SDS011;5531;42.570;23.676;2022-07-23T11:40:33;7.65;;;4.32;;
10957;SDS011;5531;42.570;23.676;2022-07-23T11:43:04;9.68;;;4.38;;
10957;SDS011;5531;42.570;23.676;2022-07-23T11:45:35;10.52;;;4.18;;
10957;SDS011;5531;42.570;23.676;2022-07-23T11:48:08;10.25;;;4.15;;
10957;SDS011;5531;42.570;23.676;2022-07-23T11:50:46;11.40;;;3.90;;
10957;SDS011;5531;42.570;23.676;2022-07-23T11:53:21;9.45;;;4.32;;
10957;SDS011;5531;42.570;23.676;2022-07-23T11:55:51;9.45;;;4.28;;
10957;SDS011;5531;42.570;23.676;2022-07-23T11:58:21;8.73;;;3.63;;
10957;SDS011;5531;42.570;23.676;2022-07-23T12:00:50;9.35;;;4.28;;
10957;SDS011;5531;42.570;23.676;2022-07-23T12:03:19;9.95;;;4.03;;
10957;SDS011;5531;42.570;23.676;2022-07-23T12:05:55;11.63;;;4.45;;
10957;SDS011;5531;42.570;23.676;2022-07-23T12:08:25;10.77;;;4.55;;
10957;SDS011;5531;42.570;23.676;2022-07-23T12:10:55;10.73;;;4.50;;
10957;SDS011;5531;42.570;23.676;2022-07-23T12:13:24;7.18;;;3.85;;
10957;SDS011;5531;42.570;23.676;2022-07-23T12:15:56;8.93;;;4.53;;
10957;SDS011;5531;42.570;23.676;2022-07-23T12:18:26;8.48;;;4.70;;
10957;SDS011;5531;42.570;23.676;2022-07-23T12:21:02;9.65;;;4.25;;
10957;SDS011;5531;42.570;23.676;2022-07-23T12:23:32;10.25;;;4.25;;
10957;SDS011;5531;42.570;23.676;2022-07-23T12:26:03;8.35;;;4.20;;
10957;SDS011;5531;42.570;23.676;2022-07-23T12:28:35;10.52;;;4.35;;
10957;SDS011;5531;42.570;23.676;2022-07-23T12:31:07;9.90;;;4.78;;
10957;SDS011;5531;42.570;23.676;2022-07-23T12:33:37;12.27;;;4.60;;
10957;SDS011;5531;42.570;23.676;2022-07-23T12:36:11;10.95;;;4.00;;
10957;SDS011;5531;42.570;23.676;2022-07-23T12:38:41;9.90;;;3.85;;
10957;SDS011;5531;42.570;23.676;2022-07-23T12:41:14;11.10;;;4.60;;
10957;SDS011;5531;42.570;23.676;2022-07-23T12:43:45;11.38;;;4.20;;
10957;SDS011;5531;42.570;23.676;2022-07-23T12:46:15;12.02;;;3.95;;
10957;SDS011;5531;42.570;23.676;2022-07-23T12:48:50;13.70;;;3.90;;
10957;SDS011;5531;42.570;23.676;2022-07-23T12:51:24;13.32;;;4.45;;
10957;SDS011;5531;42.570;23.676;2022-07-23T12:53:56;10.60;;;3.90;;
10957;SDS011;5531;42.570;23.676;2022-07-23T12:56:27;10.02;;;4.03;;
10957;SDS011;5531;42.570;23.676;2022-07-23T12:58:58;10.77;;;3.67;;
10957;SDS011;5531;42.570;23.676;2022-07-23T13:01:33;11.73;;;4.38;;
10957;SDS011;5531;42.570;23.676;2022-07-23T13:04:04;10.52;;;4.13;;
10957;SDS011;5531;42.570;23.676;2022-07-23T13:06:37;11.85;;;4.20;;
10957;SDS011;5531;42.570;23.676;2022-07-23T13:09:07;13.50;;;4.50;;
10957;SDS011;5531;42.570;23.676;2022-07-23T13:11:38;11.05;;;4.28;;
10957;SDS011;5531;42.570;23.676;2022-07-23T13:14:07;9.07;;;4.40;;
10957;SDS011;5531;42.570;23.676;2022-07-23T13:16:36;10.30;;;4.45;;
10957;SDS011;5531;42.570;23.676;2022-07-23T13:19:06;10.32;;;4.00;;
10957;SDS011;5531;42.570;23.676;2022-07-23T13:21:38;11.60;;;4.43;;
10957;SDS011;5531;42.570;23.676;2022-07-23T13:24:08;12.50;;;4.43;;
10957;SDS011;5531;42.570;23.676;2022-07-23T13:26:38;12.45;;;4.38;;
10957;SDS011;5531;42.570;23.676;2022-07-23T13:29:08;13.93;;;4.35;;
10957;SDS011;5531;42.570;23.676;2022-07-23T13:31:38;7.85;;;3.70;;
10957;SDS011;5531;42.570;23.676;2022-07-23T13:34:07;9.40;;;4.07;;
10957;SDS011;5531;42.570;23.676;2022-07-23T13:36:39;11.80;;;4.25;;
10957;SDS011;5531;42.570;23.676;2022-07-23T13:39:08;10.88;;;3.95;;
10957;SDS011;5531;42.570;23.676;2022-07-23T13:41:37;12.98;;;4.35;;
10957;SDS011;5531;42.570;23.676;2022-07-23T13:44:07;9.20;;;4.00;;
10957;SDS011;5531;42.570;23.676;2022-07-23T13:46:39;11.98;;;4.03;;
10957;SDS011;5531;42.570;23.676;2022-07-23T13:49:08;9.63;;;3.90;;
10957;SDS011;5531;42.570;23.676;2022-07-23T13:51:40;9.02;;;4.03;;
10957;SDS011;5531;42.570;23.676;2022-07-23T13:54:09;9.48;;;4.28;;
10957;SDS011;5531;42.570;23.676;2022-07-23T13:56:38;9.48;;;4.13;;
10957;SDS011;5531;42.570;23.676;2022-07-23T13:59:07;10.18;;;4.22;;
10957;SDS011;5531;42.570;23.676;2022-07-23T14:01:36;12.48;;;4.50;;
10957;SDS011;5531;42.570;23.676;2022-07-23T14:04:05;10.80;;;4.53;;
10957;SDS011;5531;42.570;23.676;2022-07-23T14:06:34;8.57;;;4.18;;
10957;SDS011;5531;42.570;23.676;2022-07-23T14:09:06;10.70;;;4.22;;
10957;SDS011;5531;42.570;23.676;2022-07-23T14:11:35;12.07;;;4.63;;
10957;SDS011;5531;42.570;23.676;2022-07-23T14:14:04;11.35;;;4.50;;
10957;SDS011;5531;42.570;23.676;2022-07-23T14:16:33;12.18;;;4.60;;
10957;SDS011;5531;42.570;23.676;2022-07-23T14:19:02;11.90;;;4.38;;
10957;SDS011;5531;42.570;23.676;2022-07-23T14:21:31;11.70;;;4.20;;
10957;SDS011;5531;42.570;23.676;2022-07-23T14:24:00;10.52;;;4.40;;
10957;SDS011;5531;42.570;23.676;2022-07-23T14:26:32;9.30;;;4.70;;
10957;SDS011;5531;42.570;23.676;2022-07-23T14:29:01;9.50;;;4.55;;
10957;SDS011;5531;42.570;23.676;2022-07-23T14:31:30;8.27;;;4.30;;
10957;SDS011;5531;42.570;23.676;2022-07-23T14:33:59;7.38;;;4.20;;
10957;SDS011;5531;42.570;23.676;2022-07-23T14:36:29;8.93;;;4.40;;
10957;SDS011;5531;42.570;23.676;2022-07-23T14:38:59;11.30;;;4.43;;
10957;SDS011;5531;42.570;23.676;2022-07-23T14:41:29;11.68;;;4.03;;
10957;SDS011;5531;42.570;23.676;2022-07-23T14:44:00;8.30;;;3.90;;
10957;SDS011;5531;42.570;23.676;2022-07-23T14:46:30;10.82;;;4.30;;
10957;SDS011;5531;42.570;23.676;2022-07-23T14:48:59;9.75;;;4.18;;
10957;SDS011;5531;42.570;23.676;2022-07-23T14:51:28;8.57;;;4.50;;
10957;SDS011;5531;42.570;23.676;2022-07-23T14:53:57;8.10;;;4.80;;
10957;SDS011;5531;42.570;23.676;2022-07-23T14:56:26;10.13;;;4.93;;
10957;SDS011;5531;42.570;23.676;2022-07-23T14:58:57;9.00;;;4.80;;
10957;SDS011;5531;42.570;23.676;2022-07-23T15:01:26;9.63;;;4.60;;
10957;SDS011;5531;42.570;23.676;2022-07-23T15:03:55;10.45;;;4.55;;
10957;SDS011;5531;42.570;23.676;2022-07-23T15:06:24;8.80;;;4.55;;
10957;SDS011;5531;42.570;23.676;2022-07-23T15:08:53;7.90;;;4.60;;
10957;SDS011;5531;42.570;23.676;2022-07-23T15:11:22;7.63;;;4.68;;
10957;SDS011;5531;42.570;23.676;2022-07-23T15:13:51;10.00;;;4.18;;
10957;SDS011;5531;42.570;23.676;2022-07-23T15:16:23;7.38;;;4.55;;
10957;SDS011;5531;42.570;23.676;2022-07-23T15:18:52;8.45;;;4.90;;
10957;SDS011;5531;42.570;23.676;2022-07-23T15:21:21;8.63;;;4.60;;
10957;SDS011;5531;42.570;23.676;2022-07-23T15:23:51;7.75;;;4.35;;